To NAV CANADA Home Page Login to a new session Search on AWWS site Feedback and Comments Disclaimer Vers la page française équivalente Tips FAQ What's new on the site To the Forecasts and Observations / NOTAM section To "File a Flight Plan" website Publications and other links Update of the User's profile FIC Telephone Numbers My Weather Data Folder Route Weather Data Regional Weather Data Local Weather Data To the Forecasts and Observations / NOTAM section
Request Generated 05/04/2016 at 07:56:45 UTC . Weather information available at that time is displayed.

METAR/TAF

QUEBEC/JEAN LESAGE INTL/QC    

METAR CYQB 040700Z 07005KT 15SM BKN009 04/03 A2991 RMK ST6 SLP133=
METAR CYQB 040600Z 07004KT 030V100 15SM SCT008 BKN012 04/03 A2991 RMK
ST4SC3 SLP134=
METAR CYQB 040500Z 01003KT 15SM FEW009 SCT013 BKN045 03/02 A2991 RMK
SF1SC4SC2 SF TR SLP134=

TAF AMD CYQB 040734Z 0407/0506 07005KT P6SM BKN040 TEMPO 0407/0409
BKN009 PROB30 0407/0409 1/2SM FG VV001
FM040900 06006KT 3SM BR BKN030 PROB30 0409/0412 1/4SM FG VV001
FM041400 06012KT P6SM SCT030
FM041800 07015KT P6SM BKN030
FM050000 06010KT P6SM FEW030 FEW090 SCT220
RMK NXT FCST BY 041200Z=
Your time UTC time
Weather data provided by Environment Canada and NAV CANADA